sensor_id;sensor_type;location;lat;lon;timestamp;P1;durP1;ratioP1;P2;durP2;ratioP2
24859;SDS011;12936;52.006;4.350;2023-06-24T00:01:40;3.05;;;1.98;;
24859;SDS011;12936;52.006;4.350;2023-06-24T00:04:08;6.15;;;2.30;;
24859;SDS011;12936;52.006;4.350;2023-06-24T00:06:37;2.80;;;2.05;;
24859;SDS011;12936;52.006;4.350;2023-06-24T00:09:06;3.70;;;2.28;;
24859;SDS011;12936;52.006;4.350;2023-06-24T00:11:35;2.33;;;2.13;;
24859;SDS011;12936;52.006;4.350;2023-06-24T00:14:03;2.88;;;2.28;;
24859;SDS011;12936;52.006;4.350;2023-06-24T00:16:33;3.25;;;2.17;;
24859;SDS011;12936;52.006;4.350;2023-06-24T00:19:02;4.35;;;2.45;;
24859;SDS011;12936;52.006;4.350;2023-06-24T00:21:30;4.45;;;2.33;;
24859;SDS011;12936;52.006;4.350;2023-06-24T00:23:58;3.78;;;2.35;;
24859;SDS011;12936;52.006;4.350;2023-06-24T00:26:30;5.38;;;2.30;;
24859;SDS011;12936;52.006;4.350;2023-06-24T00:29:00;4.60;;;2.30;;
24859;SDS011;12936;52.006;4.350;2023-06-24T00:31:28;3.75;;;2.03;;
24859;SDS011;12936;52.006;4.350;2023-06-24T00:33:56;4.53;;;2.10;;
24859;SDS011;12936;52.006;4.350;2023-06-24T00:36:24;3.85;;;2.17;;
24859;SDS011;12936;52.006;4.350;2023-06-24T00:38:53;4.68;;;2.10;;
24859;SDS011;12936;52.006;4.350;2023-06-24T00:41:23;5.05;;;2.30;;
24859;SDS011;12936;52.006;4.350;2023-06-24T00:43:51;3.08;;;2.25;;
24859;SDS011;12936;52.006;4.350;2023-06-24T00:46:21;4.07;;;2.55;;
24859;SDS011;12936;52.006;4.350;2023-06-24T00:48:51;3.85;;;1.80;;
24859;SDS011;12936;52.006;4.350;2023-06-24T00:51:19;4.20;;;2.22;;
24859;SDS011;12936;52.006;4.350;2023-06-24T00:53:52;4.80;;;2.40;;
24859;SDS011;12936;52.006;4.350;2023-06-24T00:56:21;9.90;;;2.20;;
24859;SDS011;12936;52.006;4.350;2023-06-24T00:58:50;4.55;;;2.50;;
24859;SDS011;12936;52.006;4.350;2023-06-24T01:01:18;4.05;;;2.33;;
24859;SDS011;12936;52.006;4.350;2023-06-24T01:03:48;4.03;;;2.47;;
24859;SDS011;12936;52.006;4.350;2023-06-24T01:06:16;4.00;;;2.42;;
24859;SDS011;12936;52.006;4.350;2023-06-24T01:08:46;4.90;;;2.60;;
24859;SDS011;12936;52.006;4.350;2023-06-24T01:11:17;4.95;;;2.58;;
24859;SDS011;12936;52.006;4.350;2023-06-24T01:13:45;3.67;;;2.38;;
24859;SDS011;12936;52.006;4.350;2023-06-24T01:16:14;7.97;;;2.60;;
24859;SDS011;12936;52.006;4.350;2023-06-24T01:18:50;3.75;;;2.40;;
24859;SDS011;12936;52.006;4.350;2023-06-24T01:21:33;5.13;;;2.95;;
24859;SDS011;12936;52.006;4.350;2023-06-24T01:24:29;5.82;;;2.80;;
24859;SDS011;12936;52.006;4.350;2023-06-24T01:30:19;4.13;;;2.60;;
24859;SDS011;12936;52.006;4.350;2023-06-24T01:33:03;4.28;;;2.70;;
24859;SDS011;12936;52.006;4.350;2023-06-24T01:35:35;4.10;;;2.83;;
24859;SDS011;12936;52.006;4.350;2023-06-24T01:38:07;6.65;;;2.83;;
24859;SDS011;12936;52.006;4.350;2023-06-24T01:40:38;6.07;;;2.47;;
24859;SDS011;12936;52.006;4.350;2023-06-24T01:43:10;4.70;;;2.70;;
24859;SDS011;12936;52.006;4.350;2023-06-24T01:45:41;5.22;;;2.55;;
24859;SDS011;12936;52.006;4.350;2023-06-24T01:48:13;4.80;;;2.50;;
24859;SDS011;12936;52.006;4.350;2023-06-24T01:50:44;3.97;;;2.58;;
24859;SDS011;12936;52.006;4.350;2023-06-24T01:53:16;5.88;;;2.20;;
24859;SDS011;12936;52.006;4.350;2023-06-24T01:55:46;5.25;;;2.65;;
24859;SDS011;12936;52.006;4.350;2023-06-24T01:58:17;4.55;;;2.50;;
24859;SDS011;12936;52.006;4.350;2023-06-24T02:00:46;5.32;;;2.95;;
24859;SDS011;12936;52.006;4.350;2023-06-24T02:03:17;4.60;;;2.67;;
24859;SDS011;12936;52.006;4.350;2023-06-24T02:05:47;4.97;;;2.53;;
24859;SDS011;12936;52.006;4.350;2023-06-24T02:08:15;5.53;;;2.97;;
24859;SDS011;12936;52.006;4.350;2023-06-24T02:10:47;6.88;;;3.03;;
24859;SDS011;12936;52.006;4.350;2023-06-24T02:13:17;6.28;;;2.78;;
24859;SDS011;12936;52.006;4.350;2023-06-24T02:15:46;4.28;;;3.10;;
24859;SDS011;12936;52.006;4.350;2023-06-24T02:18:17;5.00;;;2.78;;
24859;SDS011;12936;52.006;4.350;2023-06-24T02:20:46;4.18;;;3.00;;
24859;SDS011;12936;52.006;4.350;2023-06-24T02:23:16;6.90;;;2.75;;
24859;SDS011;12936;52.006;4.350;2023-06-24T02:25:45;3.17;;;2.88;;
24859;SDS011;12936;52.006;4.350;2023-06-24T02:28:14;3.35;;;2.85;;
24859;SDS011;12936;52.006;4.350;2023-06-24T02:30:43;4.05;;;3.15;;
24859;SDS011;12936;52.006;4.350;2023-06-24T02:33:12;5.57;;;3.45;;
24859;SDS011;12936;52.006;4.350;2023-06-24T02:35:43;5.10;;;3.03;;
24859;SDS011;12936;52.006;4.350;2023-06-24T02:38:12;6.25;;;3.30;;
24859;SDS011;12936;52.006;4.350;2023-06-24T02:40:42;5.47;;;3.45;;
24859;SDS011;12936;52.006;4.350;2023-06-24T02:43:11;6.65;;;3.90;;
24859;SDS011;12936;52.006;4.350;2023-06-24T02:45:39;6.93;;;3.60;;
24859;SDS011;12936;52.006;4.350;2023-06-24T02:48:08;6.72;;;3.28;;
24859;SDS011;12936;52.006;4.350;2023-06-24T02:50:37;7.55;;;3.55;;
24859;SDS011;12936;52.006;4.350;2023-06-24T02:53:08;5.72;;;3.30;;
24859;SDS011;12936;52.006;4.350;2023-06-24T02:55:38;7.28;;;3.35;;
24859;SDS011;12936;52.006;4.350;2023-06-24T02:58:08;5.15;;;3.50;;
24859;SDS011;12936;52.006;4.350;2023-06-24T03:00:37;7.68;;;3.92;;
24859;SDS011;12936;52.006;4.350;2023-06-24T03:03:05;4.03;;;3.47;;
24859;SDS011;12936;52.006;4.350;2023-06-24T03:05:34;7.75;;;3.42;;
24859;SDS011;12936;52.006;4.350;2023-06-24T03:08:04;9.38;;;3.90;;
24859;SDS011;12936;52.006;4.350;2023-06-24T03:10:33;6.32;;;3.80;;
24859;SDS011;12936;52.006;4.350;2023-06-24T03:13:04;5.15;;;3.88;;
24859;SDS011;12936;52.006;4.350;2023-06-24T03:15:32;5.78;;;3.80;;
24859;SDS011;12936;52.006;4.350;2023-06-24T03:18:00;7.60;;;3.83;;
24859;SDS011;12936;52.006;4.350;2023-06-24T03:20:28;6.88;;;3.80;;
24859;SDS011;12936;52.006;4.350;2023-06-24T03:23:02;5.30;;;3.75;;
24859;SDS011;12936;52.006;4.350;2023-06-24T03:25:30;5.70;;;3.83;;
24859;SDS011;12936;52.006;4.350;2023-06-24T03:28:00;7.03;;;4.43;;
24859;SDS011;12936;52.006;4.350;2023-06-24T03:30:30;8.18;;;4.22;;
24859;SDS011;12936;52.006;4.350;2023-06-24T03:32:58;11.55;;;3.92;;
24859;SDS011;12936;52.006;4.350;2023-06-24T03:35:26;5.40;;;4.18;;
24859;SDS011;12936;52.006;4.350;2023-06-24T03:37:54;10.55;;;4.07;;
24859;SDS011;12936;52.006;4.350;2023-06-24T03:40:22;10.07;;;3.88;;
24859;SDS011;12936;52.006;4.350;2023-06-24T03:42:50;6.57;;;4.00;;
24859;SDS011;12936;52.006;4.350;2023-06-24T03:45:19;5.53;;;3.78;;
24859;SDS011;12936;52.006;4.350;2023-06-24T03:47:47;5.53;;;3.92;;
24859;SDS011;12936;52.006;4.350;2023-06-24T03:50:15;6.50;;;4.10;;
24859;SDS011;12936;52.006;4.350;2023-06-24T03:52:43;5.72;;;4.30;;
24859;SDS011;12936;52.006;4.350;2023-06-24T03:55:11;5.45;;;3.70;;
24859;SDS011;12936;52.006;4.350;2023-06-24T03:57:39;5.82;;;4.00;;
24859;SDS011;12936;52.006;4.350;2023-06-24T04:00:08;5.13;;;4.00;;
24859;SDS011;12936;52.006;4.350;2023-06-24T04:02:41;5.25;;;4.15;;
24859;SDS011;12936;52.006;4.350;2023-06-24T04:05:09;9.27;;;4.68;;
24859;SDS011;12936;52.006;4.350;2023-06-24T04:07:38;7.72;;;4.57;;
24859;SDS011;12936;52.006;4.350;2023-06-24T04:10:06;7.88;;;4.45;;
24859;SDS011;12936;52.006;4.350;2023-06-24T04:12:56;6.22;;;4.60;;
24859;SDS011;12936;52.006;4.350;2023-06-24T04:15:25;9.23;;;4.97;;
24859;SDS011;12936;52.006;4.350;2023-06-24T04:17:54;7.53;;;4.75;;
24859;SDS011;12936;52.006;4.350;2023-06-24T04:20:22;9.70;;;4.90;;
24859;SDS011;12936;52.006;4.350;2023-06-24T04:22:50;7.10;;;4.50;;
24859;SDS011;12936;52.006;4.350;2023-06-24T04:25:18;7.20;;;4.95;;
24859;SDS011;12936;52.006;4.350;2023-06-24T04:27:46;7.57;;;4.57;;
24859;SDS011;12936;52.006;4.350;2023-06-24T04:30:14;6.60;;;4.93;;
24859;SDS011;12936;52.006;4.350;2023-06-24T04:32:42;6.30;;;4.55;;
24859;SDS011;12936;52.006;4.350;2023-06-24T04:35:12;7.60;;;5.22;;
24859;SDS011;12936;52.006;4.350;2023-06-24T04:37:40;6.88;;;4.75;;
24859;SDS011;12936;52.006;4.350;2023-06-24T04:40:09;6.60;;;4.70;;
24859;SDS011;12936;52.006;4.350;2023-06-24T04:42:37;7.68;;;4.50;;
24859;SDS011;12936;52.006;4.350;2023-06-24T04:45:05;7.22;;;4.70;;
24859;SDS011;12936;52.006;4.350;2023-06-24T04:47:34;7.95;;;4.85;;
24859;SDS011;12936;52.006;4.350;2023-06-24T04:50:02;6.53;;;4.78;;
24859;SDS011;12936;52.006;4.350;2023-06-24T04:52:32;6.70;;;4.82;;
24859;SDS011;12936;52.006;4.350;2023-06-24T04:55:00;6.93;;;5.03;;
24859;SDS011;12936;52.006;4.350;2023-06-24T04:57:28;8.40;;;5.43;;
24859;SDS011;12936;52.006;4.350;2023-06-24T04:59:57;7.72;;;4.95;;
24859;SDS011;12936;52.006;4.350;2023-06-24T05:02:26;9.18;;;5.15;;
24859;SDS011;12936;52.006;4.350;2023-06-24T05:04:54;6.78;;;4.82;;
24859;SDS011;12936;52.006;4.350;2023-06-24T05:07:22;12.32;;;5.20;;
24859;SDS011;12936;52.006;4.350;2023-06-24T05:09:52;8.30;;;4.70;;
24859;SDS011;12936;52.006;4.350;2023-06-24T05:12:20;7.75;;;5.55;;
24859;SDS011;12936;52.006;4.350;2023-06-24T05:14:49;9.45;;;5.55;;
24859;SDS011;12936;52.006;4.350;2023-06-24T05:17:19;7.20;;;5.50;;
24859;SDS011;12936;52.006;4.350;2023-06-24T05:19:47;7.05;;;4.97;;
24859;SDS011;12936;52.006;4.350;2023-06-24T05:22:16;9.48;;;5.53;;
24859;SDS011;12936;52.006;4.350;2023-06-24T05:24:44;8.48;;;5.90;;
24859;SDS011;12936;52.006;4.350;2023-06-24T05:27:13;7.40;;;5.55;;
24859;SDS011;12936;52.006;4.350;2023-06-24T05:29:41;9.00;;;5.75;;
24859;SDS011;12936;52.006;4.350;2023-06-24T05:32:09;7.45;;;5.80;;
24859;SDS011;12936;52.006;4.350;2023-06-24T05:34:40;9.50;;;5.97;;
24859;SDS011;12936;52.006;4.350;2023-06-24T05:37:08;12.80;;;6.30;;
24859;SDS011;12936;52.006;4.350;2023-06-24T05:39:36;12.77;;;6.60;;
24859;SDS011;12936;52.006;4.350;2023-06-24T05:42:05;9.60;;;6.22;;
24859;SDS011;12936;52.006;4.350;2023-06-24T05:44:34;8.60;;;6.47;;
24859;SDS011;12936;52.006;4.350;2023-06-24T05:47:02;10.32;;;5.82;;
24859;SDS011;12936;52.006;4.350;2023-06-24T05:49:31;10.05;;;6.40;;
24859;SDS011;12936;52.006;4.350;2023-06-24T05:52:02;10.88;;;6.10;;
24859;SDS011;12936;52.006;4.350;2023-06-24T05:54:30;10.05;;;6.05;;
24859;SDS011;12936;52.006;4.350;2023-06-24T05:56:58;13.05;;;7.28;;
24859;SDS011;12936;52.006;4.350;2023-06-24T05:59:26;8.75;;;6.68;;
24859;SDS011;12936;52.006;4.350;2023-06-24T06:01:56;10.75;;;7.15;;
24859;SDS011;12936;52.006;4.350;2023-06-24T06:04:24;8.60;;;6.13;;
24859;SDS011;12936;52.006;4.350;2023-06-24T06:06:52;9.02;;;6.80;;
24859;SDS011;12936;52.006;4.350;2023-06-24T06:09:20;11.90;;;7.22;;
24859;SDS011;12936;52.006;4.350;2023-06-24T06:11:48;13.25;;;7.18;;
24859;SDS011;12936;52.006;4.350;2023-06-24T06:14:17;13.52;;;6.95;;
24859;SDS011;12936;52.006;4.350;2023-06-24T06:16:45;12.57;;;6.50;;
24859;SDS011;12936;52.006;4.350;2023-06-24T06:19:14;9.90;;;6.30;;
24859;SDS011;12936;52.006;4.350;2023-06-24T06:21:42;13.05;;;7.40;;
24859;SDS011;12936;52.006;4.350;2023-06-24T06:24:10;10.30;;;6.95;;
24859;SDS011;12936;52.006;4.350;2023-06-24T06:26:40;11.25;;;8.13;;
24859;SDS011;12936;52.006;4.350;2023-06-24T06:29:09;11.68;;;7.82;;
24859;SDS011;12936;52.006;4.350;2023-06-24T06:31:38;10.95;;;7.15;;
24859;SDS011;12936;52.006;4.350;2023-06-24T06:34:06;11.80;;;7.43;;
24859;SDS011;12936;52.006;4.350;2023-06-24T06:36:36;13.38;;;9.13;;
24859;SDS011;12936;52.006;4.350;2023-06-24T06:39:04;15.18;;;7.80;;
24859;SDS011;12936;52.006;4.350;2023-06-24T06:41:32;11.98;;;8.35;;
24859;SDS011;12936;52.006;4.350;2023-06-24T06:44:00;12.00;;;8.88;;
24859;SDS011;12936;52.006;4.350;2023-06-24T06:46:28;12.02;;;8.00;;
24859;SDS011;12936;52.006;4.350;2023-06-24T06:48:57;11.60;;;8.20;;
24859;SDS011;12936;52.006;4.350;2023-06-24T06:51:26;14.15;;;8.68;;
24859;SDS011;12936;52.006;4.350;2023-06-24T06:53:55;13.02;;;8.50;;
24859;SDS011;12936;52.006;4.350;2023-06-24T06:56:24;13.85;;;8.43;;
24859;SDS011;12936;52.006;4.350;2023-06-24T06:58:52;12.90;;;8.32;;
24859;SDS011;12936;52.006;4.350;2023-06-24T07:01:20;14.73;;;8.75;;
24859;SDS011;12936;52.006;4.350;2023-06-24T07:03:49;10.93;;;8.82;;
24859;SDS011;12936;52.006;4.350;2023-06-24T07:06:17;12.15;;;8.77;;
24859;SDS011;12936;52.006;4.350;2023-06-24T07:08:46;11.40;;;8.52;;
24859;SDS011;12936;52.006;4.350;2023-06-24T07:11:15;13.10;;;8.77;;
24859;SDS011;12936;52.006;4.350;2023-06-24T07:13:43;14.48;;;8.43;;
24859;SDS011;12936;52.006;4.350;2023-06-24T07:16:12;12.00;;;8.65;;
24859;SDS011;12936;52.006;4.350;2023-06-24T07:18:40;13.43;;;8.38;;
24859;SDS011;12936;52.006;4.350;2023-06-24T07:21:08;15.20;;;8.77;;
24859;SDS011;12936;52.006;4.350;2023-06-24T07:23:37;15.75;;;9.02;;
24859;SDS011;12936;52.006;4.350;2023-06-24T07:26:05;13.75;;;8.50;;
24859;SDS011;12936;52.006;4.350;2023-06-24T07:28:34;14.23;;;8.23;;
24859;SDS011;12936;52.006;4.350;2023-06-24T07:31:02;14.07;;;9.00;;
24859;SDS011;12936;52.006;4.350;2023-06-24T07:33:30;10.40;;;8.48;;
24859;SDS011;12936;52.006;4.350;2023-06-24T07:35:58;14.20;;;8.70;;
24859;SDS011;12936;52.006;4.350;2023-06-24T07:38:28;16.30;;;9.10;;
24859;SDS011;12936;52.006;4.350;2023-06-24T07:40:56;12.35;;;8.77;;
24859;SDS011;12936;52.006;4.350;2023-06-24T07:43:24;12.70;;;8.95;;
24859;SDS011;12936;52.006;4.350;2023-06-24T07:45:54;11.85;;;8.38;;
24859;SDS011;12936;52.006;4.350;2023-06-24T07:48:22;15.75;;;9.63;;
24859;SDS011;12936;52.006;4.350;2023-06-24T07:50:50;19.23;;;9.38;;
24859;SDS011;12936;52.006;4.350;2023-06-24T07:53:18;15.18;;;8.30;;
24859;SDS011;12936;52.006;4.350;2023-06-24T07:55:46;15.25;;;8.73;;
24859;SDS011;12936;52.006;4.350;2023-06-24T07:58:14;17.05;;;8.68;;
24859;SDS011;12936;52.006;4.350;2023-06-24T08:00:42;11.20;;;8.55;;
24859;SDS011;12936;52.006;4.350;2023-06-24T08:03:12;11.20;;;7.57;;
24859;SDS011;12936;52.006;4.350;2023-06-24T08:05:40;10.27;;;7.88;;
24859;SDS011;12936;52.006;4.350;2023-06-24T08:08:08;12.13;;;8.02;;
24859;SDS011;12936;52.006;4.350;2023-06-24T08:10:36;13.93;;;7.95;;
24859;SDS011;12936;52.006;4.350;2023-06-24T08:13:04;10.20;;;7.57;;
24859;SDS011;12936;52.006;4.350;2023-06-24T08:15:33;16.42;;;8.60;;
24859;SDS011;12936;52.006;4.350;2023-06-24T08:18:02;13.60;;;8.77;;
24859;SDS011;12936;52.006;4.350;2023-06-24T08:20:32;11.05;;;7.85;;
24859;SDS011;12936;52.006;4.350;2023-06-24T08:23:00;12.40;;;8.50;;
24859;SDS011;12936;52.006;4.350;2023-06-24T08:25:28;15.70;;;8.32;;
24859;SDS011;12936;52.006;4.350;2023-06-24T08:27:56;12.43;;;7.90;;
24859;SDS011;12936;52.006;4.350;2023-06-24T08:30:24;12.43;;;8.48;;
24859;SDS011;12936;52.006;4.350;2023-06-24T08:32:53;11.85;;;7.97;;
24859;SDS011;12936;52.006;4.350;2023-06-24T08:35:21;11.93;;;7.25;;
24859;SDS011;12936;52.006;4.350;2023-06-24T08:37:50;15.65;;;8.45;;
24859;SDS011;12936;52.006;4.350;2023-06-24T08:40:18;15.32;;;7.78;;
24859;SDS011;12936;52.006;4.350;2023-06-24T08:42:46;10.85;;;7.28;;
24859;SDS011;12936;52.006;4.350;2023-06-24T08:45:16;13.73;;;7.97;;
24859;SDS011;12936;52.006;4.350;2023-06-24T08:47:44;14.85;;;8.13;;
24859;SDS011;12936;52.006;4.350;2023-06-24T08:50:15;12.38;;;7.80;;
24859;SDS011;12936;52.006;4.350;2023-06-24T08:52:45;11.45;;;7.35;;
24859;SDS011;12936;52.006;4.350;2023-06-24T08:55:20;11.60;;;7.45;;
24859;SDS011;12936;52.006;4.350;2023-06-24T08:57:50;16.30;;;8.13;;
24859;SDS011;12936;52.006;4.350;2023-06-24T09:00:18;10.57;;;6.82;;
24859;SDS011;12936;52.006;4.350;2023-06-24T09:02:46;12.20;;;7.32;;
24859;SDS011;12936;52.006;4.350;2023-06-24T09:05:14;12.30;;;7.10;;
24859;SDS011;12936;52.006;4.350;2023-06-24T09:07:42;11.52;;;7.03;;
24859;SDS011;12936;52.006;4.350;2023-06-24T09:10:10;12.82;;;6.50;;
24859;SDS011;12936;52.006;4.350;2023-06-24T09:12:59;11.77;;;7.18;;
24859;SDS011;12936;52.006;4.350;2023-06-24T09:15:30;11.00;;;7.10;;
24859;SDS011;12936;52.006;4.350;2023-06-24T09:17:59;14.40;;;6.78;;
24859;SDS011;12936;52.006;4.350;2023-06-24T09:20:28;13.35;;;7.35;;
24859;SDS011;12936;52.006;4.350;2023-06-24T09:22:58;11.52;;;6.90;;
24859;SDS011;12936;52.006;4.350;2023-06-24T09:25:27;13.05;;;7.28;;
24859;SDS011;12936;52.006;4.350;2023-06-24T09:27:59;11.68;;;6.18;;
24859;SDS011;12936;52.006;4.350;2023-06-24T09:30:28;13.57;;;6.40;;
24859;SDS011;12936;52.006;4.350;2023-06-24T09:32:56;11.30;;;6.72;;
24859;SDS011;12936;52.006;4.350;2023-06-24T09:35:25;12.90;;;7.28;;
24859;SDS011;12936;52.006;4.350;2023-06-24T09:37:54;10.30;;;6.75;;
24859;SDS011;12936;52.006;4.350;2023-06-24T09:40:23;12.50;;;6.07;;
24859;SDS011;12936;52.006;4.350;2023-06-24T09:42:51;12.45;;;6.30;;
24859;SDS011;12936;52.006;4.350;2023-06-24T09:45:25;9.07;;;6.30;;
24859;SDS011;12936;52.006;4.350;2023-06-24T09:47:54;14.18;;;6.90;;
24859;SDS011;12936;52.006;4.350;2023-06-24T09:50:24;10.18;;;6.65;;
24859;SDS011;12936;52.006;4.350;2023-06-24T09:52:52;10.32;;;5.82;;
24859;SDS011;12936;52.006;4.350;2023-06-24T09:55:20;12.52;;;6.68;;
24859;SDS011;12936;52.006;4.350;2023-06-24T09:57:50;11.30;;;6.30;;
24859;SDS011;12936;52.006;4.350;2023-06-24T10:00:19;12.73;;;6.38;;
24859;SDS011;12936;52.006;4.350;2023-06-24T10:02:52;12.32;;;6.65;;
24859;SDS011;12936;52.006;4.350;2023-06-24T10:05:26;11.70;;;6.85;;
24859;SDS011;12936;52.006;4.350;2023-06-24T10:07:54;12.95;;;7.60;;
24859;SDS011;12936;52.006;4.350;2023-06-24T10:10:22;10.63;;;6.82;;
24859;SDS011;12936;52.006;4.350;2023-06-24T10:12:50;12.35;;;6.47;;
24859;SDS011;12936;52.006;4.350;2023-06-24T10:15:18;12.77;;;5.80;;
24859;SDS011;12936;52.006;4.350;2023-06-24T10:17:46;8.25;;;5.18;;
24859;SDS011;12936;52.006;4.350;2023-06-24T10:20:24;10.60;;;5.45;;
24859;SDS011;12936;52.006;4.350;2023-06-24T10:22:53;9.57;;;5.13;;
24859;SDS011;12936;52.006;4.350;2023-06-24T10:25:22;11.00;;;6.13;;
24859;SDS011;12936;52.006;4.350;2023-06-24T10:27:53;10.98;;;4.70;;
24859;SDS011;12936;52.006;4.350;2023-06-24T10:30:21;10.70;;;4.53;;
24859;SDS011;12936;52.006;4.350;2023-06-24T10:32:51;6.43;;;4.60;;
24859;SDS011;12936;52.006;4.350;2023-06-24T10:35:21;7.63;;;4.15;;
24859;SDS011;12936;52.006;4.350;2023-06-24T10:37:56;6.35;;;4.68;;
24859;SDS011;12936;52.006;4.350;2023-06-24T10:40:34;8.48;;;3.97;;
24859;SDS011;12936;52.006;4.350;2023-06-24T10:45:54;9.20;;;5.20;;
24859;SDS011;12936;52.006;4.350;2023-06-24T10:48:23;8.85;;;5.72;;
24859;SDS011;12936;52.006;4.350;2023-06-24T10:50:51;8.52;;;5.47;;
24859;SDS011;12936;52.006;4.350;2023-06-24T10:53:21;10.48;;;5.45;;
24859;SDS011;12936;52.006;4.350;2023-06-24T10:55:49;8.52;;;5.10;;
24859;SDS011;12936;52.006;4.350;2023-06-24T10:58:17;7.93;;;5.55;;
24859;SDS011;12936;52.006;4.350;2023-06-24T11:00:46;10.50;;;5.22;;
24859;SDS011;12936;52.006;4.350;2023-06-24T11:03:14;6.28;;;4.35;;
24859;SDS011;12936;52.006;4.350;2023-06-24T11:05:45;8.35;;;4.57;;
24859;SDS011;12936;52.006;4.350;2023-06-24T11:08:15;11.35;;;4.85;;
24859;SDS011;12936;52.006;4.350;2023-06-24T11:10:45;7.72;;;3.80;;
24859;SDS011;12936;52.006;4.350;2023-06-24T11:13:14;5.30;;;3.70;;
24859;SDS011;12936;52.006;4.350;2023-06-24T11:15:42;6.63;;;4.05;;
24859;SDS011;12936;52.006;4.350;2023-06-24T11:18:10;7.80;;;4.03;;
24859;SDS011;12936;52.006;4.350;2023-06-24T11:20:38;9.30;;;4.53;;
24859;SDS011;12936;52.006;4.350;2023-06-24T11:23:08;9.07;;;4.60;;
24859;SDS011;12936;52.006;4.350;2023-06-24T11:25:38;9.15;;;4.57;;
24859;SDS011;12936;52.006;4.350;2023-06-24T11:28:16;7.72;;;4.93;;
24859;SDS011;12936;52.006;4.350;2023-06-24T11:30:48;5.90;;;4.15;;
24859;SDS011;12936;52.006;4.350;2023-06-24T11:33:25;9.40;;;4.68;;
24859;SDS011;12936;52.006;4.350;2023-06-24T11:35:54;7.32;;;4.80;;
24859;SDS011;12936;52.006;4.350;2023-06-24T11:38:22;6.53;;;4.45;;
24859;SDS011;12936;52.006;4.350;2023-06-24T11:40:50;7.13;;;4.68;;
24859;SDS011;12936;52.006;4.350;2023-06-24T11:43:21;10.55;;;5.03;;
24859;SDS011;12936;52.006;4.350;2023-06-24T11:45:53;7.35;;;4.47;;
24859;SDS011;12936;52.006;4.350;2023-06-24T11:48:21;6.72;;;5.03;;
24859;SDS011;12936;52.006;4.350;2023-06-24T11:50:52;9.57;;;5.82;;
24859;SDS011;12936;52.006;4.350;2023-06-24T11:53:22;8.48;;;5.32;;
24859;SDS011;12936;52.006;4.350;2023-06-24T11:55:57;8.55;;;5.72;;
24859;SDS011;12936;52.006;4.350;2023-06-24T11:58:26;10.38;;;6.68;;
24859;SDS011;12936;52.006;4.350;2023-06-24T12:00:54;9.98;;;6.15;;
24859;SDS011;12936;52.006;4.350;2023-06-24T12:03:24;12.20;;;6.22;;
24859;SDS011;12936;52.006;4.350;2023-06-24T12:05:52;7.93;;;6.32;;
24859;SDS011;12936;52.006;4.350;2023-06-24T12:08:20;12.02;;;7.07;;
24859;SDS011;12936;52.006;4.350;2023-06-24T12:10:49;10.27;;;7.30;;
24859;SDS011;12936;52.006;4.350;2023-06-24T12:13:17;11.43;;;6.35;;
24859;SDS011;12936;52.006;4.350;2023-06-24T12:15:47;11.45;;;7.50;;
24859;SDS011;12936;52.006;4.350;2023-06-24T12:18:15;9.23;;;7.03;;
24859;SDS011;12936;52.006;4.350;2023-06-24T12:20:43;9.88;;;7.10;;
24859;SDS011;12936;52.006;4.350;2023-06-24T12:23:11;8.05;;;5.68;;
24859;SDS011;12936;52.006;4.350;2023-06-24T12:25:39;10.23;;;7.22;;
24859;SDS011;12936;52.006;4.350;2023-06-24T12:28:08;10.95;;;7.20;;
24859;SDS011;12936;52.006;4.350;2023-06-24T12:30:36;8.43;;;5.93;;
24859;SDS011;12936;52.006;4.350;2023-06-24T12:33:05;9.32;;;6.15;;
24859;SDS011;12936;52.006;4.350;2023-06-24T12:35:35;9.50;;;6.05;;
24859;SDS011;12936;52.006;4.350;2023-06-24T12:38:03;8.45;;;5.97;;
24859;SDS011;12936;52.006;4.350;2023-06-24T12:40:33;9.52;;;5.72;;
24859;SDS011;12936;52.006;4.350;2023-06-24T12:43:02;8.65;;;6.55;;
24859;SDS011;12936;52.006;4.350;2023-06-24T12:45:31;8.85;;;5.57;;
24859;SDS011;12936;52.006;4.350;2023-06-24T12:47:59;7.72;;;6.45;;
24859;SDS011;12936;52.006;4.350;2023-06-24T12:50:28;8.90;;;6.53;;
24859;SDS011;12936;52.006;4.350;2023-06-24T12:52:58;10.52;;;5.68;;
24859;SDS011;12936;52.006;4.350;2023-06-24T12:55:26;9.45;;;6.57;;
24859;SDS011;12936;52.006;4.350;2023-06-24T12:57:54;8.80;;;6.43;;
24859;SDS011;12936;52.006;4.350;2023-06-24T13:00:24;8.57;;;6.55;;
24859;SDS011;12936;52.006;4.350;2023-06-24T13:02:52;8.23;;;6.82;;
24859;SDS011;12936;52.006;4.350;2023-06-24T13:05:20;9.95;;;7.53;;
24859;SDS011;12936;52.006;4.350;2023-06-24T13:07:50;11.40;;;8.57;;
24859;SDS011;12936;52.006;4.350;2023-06-24T13:10:18;8.73;;;7.18;;
24859;SDS011;12936;52.006;4.350;2023-06-24T13:12:46;14.35;;;10.02;;
24859;SDS011;12936;52.006;4.350;2023-06-24T13:15:17;11.32;;;9.18;;
24859;SDS011;12936;52.006;4.350;2023-06-24T13:17:45;11.43;;;8.90;;
24859;SDS011;12936;52.006;4.350;2023-06-24T13:20:13;13.73;;;10.13;;
24859;SDS011;12936;52.006;4.350;2023-06-24T13:22:41;13.60;;;10.20;;
24859;SDS011;12936;52.006;4.350;2023-06-24T13:25:11;13.95;;;9.60;;
24859;SDS011;12936;52.006;4.350;2023-06-24T13:27:42;12.07;;;9.23;;
24859;SDS011;12936;52.006;4.350;2023-06-24T13:30:10;13.98;;;9.30;;
24859;SDS011;12936;52.006;4.350;2023-06-24T13:32:41;11.45;;;9.30;;
24859;SDS011;12936;52.006;4.350;2023-06-24T13:35:09;14.15;;;9.63;;
24859;SDS011;12936;52.006;4.350;2023-06-24T13:37:38;12.88;;;9.60;;
24859;SDS011;12936;52.006;4.350;2023-06-24T13:40:07;12.98;;;11.32;;
24859;SDS011;12936;52.006;4.350;2023-06-24T13:42:37;15.23;;;10.18;;
24859;SDS011;12936;52.006;4.350;2023-06-24T13:45:06;13.23;;;9.35;;
24859;SDS011;12936;52.006;4.350;2023-06-24T13:47:35;13.65;;;9.25;;
24859;SDS011;12936;52.006;4.350;2023-06-24T13:50:03;16.35;;;11.45;;
24859;SDS011;12936;52.006;4.350;2023-06-24T13:52:32;14.85;;;11.38;;
24859;SDS011;12936;52.006;4.350;2023-06-24T13:55:00;13.70;;;10.50;;
24859;SDS011;12936;52.006;4.350;2023-06-24T13:57:28;12.75;;;10.43;;
24859;SDS011;12936;52.006;4.350;2023-06-24T13:59:58;15.68;;;10.05;;
24859;SDS011;12936;52.006;4.350;2023-06-24T14:02:26;14.70;;;10.18;;
24859;SDS011;12936;52.006;4.350;2023-06-24T14:04:54;10.50;;;9.40;;
24859;SDS011;12936;52.006;4.350;2023-06-24T14:07:22;12.93;;;9.80;;
24859;SDS011;12936;52.006;4.350;2023-06-24T14:09:51;12.27;;;10.30;;
24859;SDS011;12936;52.006;4.350;2023-06-24T14:12:19;16.65;;;11.82;;
24859;SDS011;12936;52.006;4.350;2023-06-24T14:14:47;13.57;;;11.52;;
24859;SDS011;12936;52.006;4.350;2023-06-24T14:17:17;13.52;;;9.63;;
24859;SDS011;12936;52.006;4.350;2023-06-24T14:19:45;14.50;;;10.43;;
24859;SDS011;12936;52.006;4.350;2023-06-24T14:22:13;13.43;;;10.45;;
24859;SDS011;12936;52.006;4.350;2023-06-24T14:24:43;16.02;;;11.57;;
24859;SDS011;12936;52.006;4.350;2023-06-24T14:27:11;13.40;;;10.02;;
24859;SDS011;12936;52.006;4.350;2023-06-24T14:29:39;10.55;;;9.18;;
24859;SDS011;12936;52.006;4.350;2023-06-24T14:32:07;12.52;;;9.60;;
24859;SDS011;12936;52.006;4.350;2023-06-24T14:34:37;15.57;;;11.93;;
24859;SDS011;12936;52.006;4.350;2023-06-24T14:37:05;12.63;;;9.50;;
24859;SDS011;12936;52.006;4.350;2023-06-24T14:39:33;11.02;;;9.27;;
24859;SDS011;12936;52.006;4.350;2023-06-24T14:42:01;13.27;;;10.88;;
24859;SDS011;12936;52.006;4.350;2023-06-24T14:44:30;13.82;;;9.55;;
24859;SDS011;12936;52.006;4.350;2023-06-24T14:46:58;17.17;;;11.25;;
24859;SDS011;12936;52.006;4.350;2023-06-24T14:49:26;10.48;;;9.15;;
24859;SDS011;12936;52.006;4.350;2023-06-24T14:51:55;11.90;;;10.52;;
24859;SDS011;12936;52.006;4.350;2023-06-24T14:54:23;15.35;;;12.43;;
24859;SDS011;12936;52.006;4.350;2023-06-24T14:56:51;14.65;;;10.60;;
24859;SDS011;12936;52.006;4.350;2023-06-24T14:59:19;14.50;;;12.40;;